createdAt,value
2022-11-28T00:00:08.313Z,102507.50
2022-11-28T00:02:35.050Z,102505.66
2022-11-28T00:05:01.746Z,102502.19
2022-11-28T00:07:28.803Z,102505.66
2022-11-28T00:09:55.793Z,102507.44
2022-11-28T00:12:22.528Z,102508.31
2022-11-28T00:14:49.114Z,102513.56
2022-11-28T00:17:15.703Z,102515.34
2022-11-28T00:19:42.356Z,102511.88
2022-11-28T00:22:08.993Z,102513.63
2022-11-28T00:24:35.580Z,102506.56
2022-11-28T00:27:02.178Z,102508.25
2022-11-28T00:29:28.776Z,102505.63
2022-11-28T00:31:55.402Z,102498.63
2022-11-28T00:34:22.161Z,102498.69
2022-11-28T00:36:49.108Z,102500.50
2022-11-28T00:39:16.715Z,102495.28
2022-11-28T00:41:44.407Z,102503.22
2022-11-28T00:44:11.515Z,102502.38
2022-11-28T00:46:38.246Z,102495.38
2022-11-28T00:49:04.871Z,102497.16
2022-11-28T00:51:33.445Z,102493.66
2022-11-28T00:54:02.906Z,102493.66
2022-11-28T00:56:35.585Z,102484.00
2022-11-28T00:59:02.857Z,102485.81
2022-11-28T01:01:36.178Z,102483.94
2022-11-28T01:04:05.724Z,102480.34
2022-11-28T01:06:38.699Z,102485.50
2022-11-28T01:09:11.627Z,102476.78
2022-11-28T01:11:39.785Z,102482.03
2022-11-28T01:14:07.785Z,102484.63
2022-11-28T01:16:34.451Z,102488.16
2022-11-28T01:19:01.165Z,102483.75
2022-11-28T01:21:27.925Z,102474.09
2022-11-28T01:23:55.042Z,102469.72
2022-11-28T01:26:24.825Z,102463.59
2022-11-28T01:28:51.897Z,102464.47
2022-11-28T01:31:22.267Z,102455.72
2022-11-28T01:33:49.279Z,102455.72
2022-11-28T01:36:16.798Z,102459.16
2022-11-28T01:38:43.467Z,102458.34
2022-11-28T01:41:10.318Z,102460.94
2022-11-28T01:43:37.973Z,102454.78
2022-11-28T01:46:05.546Z,102464.31
2022-11-28T01:48:40.131Z,102459.78
2022-11-28T01:51:09.423Z,102454.38
2022-11-28T01:53:40.094Z,102455.97
2022-11-28T01:56:12.706Z,102458.50
2022-11-28T01:58:43.122Z,102457.63
2022-11-28T02:01:11.056Z,102459.41
2022-11-28T02:03:44.497Z,102460.28
2022-11-28T02:06:14.165Z,102461.09
2022-11-28T02:08:40.765Z,102460.22
2022-11-28T02:11:32.290Z,102455.94
2022-11-28T02:14:26.903Z,102453.44
2022-11-28T02:17:24.034Z,102450.03
2022-11-28T02:19:53.400Z,102453.59
2022-11-28T02:22:29.238Z,102451.75
2022-11-28T02:25:26.046Z,102447.38
2022-11-28T02:28:10.632Z,102438.66
2022-11-28T02:30:55.208Z,102443.09
2022-11-28T02:33:31.716Z,102441.44
2022-11-28T02:36:16.520Z,102445.81
2022-11-28T02:38:54.918Z,102451.13
2022-11-28T02:41:39.748Z,102456.44
2022-11-28T02:44:16.527Z,102451.19
2022-11-28T02:47:20.745Z,102462.50
2022-11-28T02:49:57.266Z,102462.50
2022-11-28T02:52:34.141Z,102459.88
2022-11-28T02:55:01.198Z,102469.50
2022-11-28T02:57:42.487Z,102463.44
2022-11-28T03:00:27.419Z,102467.72
2022-11-28T03:03:05.808Z,102469.47
2022-11-28T03:05:44.405Z,102468.53
2022-11-28T03:08:35.485Z,102478.19
2022-11-28T03:11:24.845Z,102467.72
2022-11-28T03:14:14.327Z,102461.69
2022-11-28T03:17:02.405Z,102464.41
2022-11-28T03:19:35.808Z,102466.22
2022-11-28T03:22:25.570Z,102465.34
2022-11-28T03:25:08.262Z,102466.19
2022-11-28T03:27:42.685Z,102468.81
2022-11-28T03:30:16.981Z,102467.03
2022-11-28T03:32:47.532Z,102461.78
2022-11-28T03:35:20.582Z,102467.97
2022-11-28T03:37:57.385Z,102478.50
2022-11-28T03:40:29.318Z,102479.41
2022-11-28T03:43:04.028Z,102482.03
2022-11-28T03:45:37.291Z,102489.81
2022-11-28T03:48:10.033Z,102487.09
2022-11-28T03:50:44.539Z,102483.59
2022-11-28T03:53:20.457Z,102483.59
2022-11-28T03:56:24.718Z,102485.38
2022-11-28T03:59:07.461Z,102480.13
2022-11-28T04:01:53.550Z,102491.53
2022-11-28T04:04:46.200Z,102488.91
2022-11-28T04:07:34.739Z,102486.25
2022-11-28T04:10:08.441Z,102487.16
2022-11-28T04:12:56.965Z,102485.44
2022-11-28T04:15:30.892Z,102482.81
2022-11-28T04:18:05.676Z,102480.19
2022-11-28T04:20:34.999Z,102484.53
2022-11-28T04:23:07.136Z,102487.16
2022-11-28T04:25:38.088Z,102478.50
2022-11-28T04:28:13.445Z,102483.75
2022-11-28T04:30:43.861Z,102476.78
2022-11-28T04:33:13.316Z,102481.22
2022-11-28T04:35:44.160Z,102482.03
2022-11-28T04:38:12.874Z,102479.47
2022-11-28T04:40:48.475Z,102475.97
2022-11-28T04:43:24.456Z,102479.47
2022-11-28T04:45:56.115Z,102481.22
2022-11-28T04:48:23.217Z,102477.72
2022-11-28T04:51:14.633Z,102477.72
2022-11-28T04:53:51.326Z,102476.84
2022-11-28T04:56:24.378Z,102474.22
2022-11-28T04:58:51.439Z,102471.63
2022-11-28T05:01:23.543Z,102480.41
2022-11-28T05:03:50.291Z,102477.78
2022-11-28T05:06:31.897Z,102482.19
2022-11-28T05:08:58.868Z,102487.47
2022-11-28T05:11:26.515Z,102481.38
2022-11-28T05:13:54.079Z,102484.88
2022-11-28T05:16:22.944Z,102480.56
2022-11-28T05:18:50.049Z,102486.69
2022-11-28T05:21:16.632Z,102479.66
2022-11-28T05:23:44.886Z,102486.69
2022-11-28T05:26:20.413Z,102492.81
2022-11-28T05:28:50.146Z,102485.88
2022-11-28T05:31:19.495Z,102485.88
2022-11-28T05:33:46.236Z,102480.63
2022-11-28T05:36:14.620Z,102482.31
2022-11-28T05:38:42.528Z,102485.88
2022-11-28T05:41:09.881Z,102486.75
2022-11-28T05:43:36.818Z,102480.66
2022-11-28T05:46:06.409Z,102492.91
2022-11-28T05:48:33.022Z,102491.22
2022-11-28T05:50:59.669Z,102483.38
2022-11-28T05:53:26.341Z,102479.91
2022-11-28T05:55:52.941Z,102485.19
2022-11-28T05:58:19.533Z,102482.53
2022-11-28T06:00:46.188Z,102486.00
2022-11-28T06:03:15.722Z,102492.09
2022-11-28T06:05:44.080Z,102485.97
2022-11-28T06:08:14.381Z,102491.16
2022-11-28T06:10:44.092Z,102489.47
2022-11-28T06:13:12.796Z,102488.59
2022-11-28T06:15:44.044Z,102490.41
2022-11-28T06:18:10.654Z,102492.16
2022-11-28T06:20:37.221Z,102489.53
2022-11-28T06:23:03.836Z,102495.66
2022-11-28T06:25:30.445Z,102494.88
2022-11-28T06:27:57.038Z,102496.59
2022-11-28T06:30:23.648Z,102502.75
2022-11-28T06:32:50.226Z,102500.19
2022-11-28T06:35:17.134Z,102505.44
2022-11-28T06:37:43.776Z,102497.56
2022-11-28T06:40:12.622Z,102497.63
2022-11-28T06:42:39.261Z,102498.44
2022-11-28T06:45:06.621Z,102488.81
2022-11-28T06:47:35.364Z,102493.22
2022-11-28T06:50:05.097Z,102499.34
2022-11-28T06:52:31.677Z,102501.13
2022-11-28T06:55:00.281Z,102499.41
2022-11-28T06:57:27.557Z,102499.47
2022-11-28T06:59:54.183Z,102498.66
2022-11-28T07:02:23.780Z,102502.16
2022-11-28T07:04:50.656Z,102517.94
2022-11-28T07:07:17.694Z,102503.03
2022-11-28T07:09:44.644Z,102509.16
2022-11-28T07:12:11.503Z,102504.84
2022-11-28T07:14:38.361Z,102499.59
2022-11-28T07:17:05.438Z,102501.38
2022-11-28T07:19:32.085Z,102499.69
2022-11-28T07:21:58.693Z,102496.13
2022-11-28T07:24:25.327Z,102504.00
2022-11-28T07:26:51.933Z,102499.59
2022-11-28T07:29:19.309Z,102508.41
2022-11-28T07:31:46.301Z,102502.25
2022-11-28T07:34:13.041Z,102502.25
2022-11-28T07:36:39.718Z,102510.16
2022-11-28T07:39:08.937Z,102505.81
2022-11-28T07:41:35.594Z,102508.44
2022-11-28T07:44:03.868Z,102513.69
2022-11-28T07:46:32.127Z,102513.69
2022-11-28T07:48:59.032Z,102512.81
2022-11-28T07:51:28.544Z,102523.38
2022-11-28T07:53:56.040Z,102521.63
2022-11-28T07:56:25.313Z,102517.25
2022-11-28T07:58:52.745Z,102519.00
2022-11-28T08:01:25.109Z,102512.88
2022-11-28T08:03:52.997Z,102520.81
2022-11-28T08:06:24.041Z,102525.22
2022-11-28T08:08:53.613Z,102520.81
2022-11-28T08:11:22.163Z,102512.94
2022-11-28T08:13:49.094Z,102514.72
2022-11-28T08:16:22.186Z,102520.88
2022-11-28T08:18:49.584Z,102514.72
2022-11-28T08:21:27.276Z,102520.94
2022-11-28T08:23:55.686Z,102523.59
2022-11-28T08:26:29.066Z,102524.47
2022-11-28T08:28:57.873Z,102520.16
2022-11-28T08:31:30.228Z,102525.41
2022-11-28T08:33:59.110Z,102528.97
2022-11-28T08:36:28.349Z,102533.41
2022-11-28T08:39:22.366Z,102528.16
2022-11-28T08:41:42.843Z,102536.06
2022-11-28T08:44:09.445Z,102532.56
2022-11-28T08:46:36.747Z,102539.59
2022-11-28T08:49:04.753Z,102533.47
2022-11-28T08:51:31.987Z,102542.25
2022-11-28T08:54:00.097Z,102544.94
2022-11-28T08:56:27.492Z,102549.31
2022-11-28T08:58:54.771Z,102546.69
2022-11-28T09:01:24.952Z,102538.88
2022-11-28T09:03:52.536Z,102545.88
2022-11-28T09:06:20.674Z,102549.38
2022-11-28T09:08:48.404Z,102548.53
2022-11-28T09:11:17.421Z,102543.31
2022-11-28T09:13:44.313Z,102553.00
2022-11-28T09:16:10.937Z,102554.75
2022-11-28T09:18:37.661Z,102558.28
2022-11-28T09:21:09.740Z,102550.47
2022-11-28T09:23:37.470Z,102557.47
2022-11-28T09:26:19.367Z,102558.41
2022-11-28T09:28:46.604Z,102561.91
2022-11-28T09:31:17.634Z,102554.06
2022-11-28T09:33:45.089Z,102557.59
2022-11-28T09:36:15.087Z,102559.38
2022-11-28T09:38:41.733Z,102564.66
2022-11-28T09:41:40.293Z,102559.44
2022-11-28T09:44:15.406Z,102562.97
2022-11-28T09:46:43.401Z,102565.63
2022-11-28T09:49:46.796Z,102567.38
2022-11-28T09:52:36.753Z,102568.22
2022-11-28T09:55:17.111Z,102562.09
2022-11-28T09:57:46.679Z,102567.34
2022-11-28T10:00:31.596Z,102569.97
2022-11-28T10:03:15.705Z,102563.88
2022-11-28T10:05:54.100Z,102561.22
2022-11-28T10:08:42.894Z,102566.50
2022-11-28T10:11:41.770Z,102563.88
2022-11-28T10:14:29.404Z,102570.00
2022-11-28T10:17:10.703Z,102557.72
2022-11-28T10:20:05.252Z,102558.63
2022-11-28T10:22:37.874Z,102552.53
2022-11-28T10:25:12.617Z,102559.56
2022-11-28T10:27:41.032Z,102554.31
2022-11-28T10:30:21.530Z,102559.56
2022-11-28T10:33:19.594Z,102556.06
2022-11-28T10:35:54.995Z,102559.56
2022-11-28T10:38:25.919Z,102557.81
2022-11-28T10:40:59.408Z,102547.28
2022-11-28T10:43:41.581Z,102556.06
2022-11-28T10:46:35.760Z,102551.69
2022-11-28T10:49:25.252Z,102555.25
2022-11-28T10:51:51.757Z,102560.56
2022-11-28T10:54:42.665Z,102549.13
2022-11-28T10:57:18.407Z,102554.44
2022-11-28T11:00:09.050Z,102552.69
2022-11-28T11:02:38.072Z,102557.97
2022-11-28T11:05:06.296Z,102552.69
2022-11-28T11:07:33.918Z,102563.25
2022-11-28T11:10:14.985Z,102559.69
2022-11-28T11:12:41.715Z,102558.81
2022-11-28T11:15:19.654Z,102556.13
2022-11-28T11:17:46.262Z,102556.13
2022-11-28T11:20:27.862Z,102561.38
2022-11-28T11:22:59.541Z,102561.38
2022-11-28T11:25:28.279Z,102558.75
2022-11-28T11:28:01.807Z,102553.50
2022-11-28T11:30:38.626Z,102555.25
2022-11-28T11:33:13.930Z,102555.25
2022-11-28T11:35:47.103Z,102559.56
2022-11-28T11:38:22.494Z,102557.88
2022-11-28T11:40:51.041Z,102553.50
2022-11-28T11:43:31.000Z,102556.13
2022-11-28T11:46:11.426Z,102557.94
2022-11-28T11:48:45.476Z,102554.38
2022-11-28T11:51:39.136Z,102555.31
2022-11-28T11:54:16.679Z,102558.81
2022-11-28T11:56:46.709Z,102556.19
2022-11-28T11:59:46.221Z,102551.81
2022-11-28T12:02:26.959Z,102550.06
2022-11-28T12:05:05.509Z,102549.25
2022-11-28T12:07:55.433Z,102548.38
2022-11-28T12:10:26.415Z,102546.56
2022-11-28T12:12:53.129Z,102555.38
2022-11-28T12:16:01.015Z,102552.69
2022-11-28T12:18:48.996Z,102551.81
2022-11-28T12:21:40.624Z,102548.31
2022-11-28T12:24:24.894Z,102549.19
2022-11-28T12:27:04.059Z,102553.63
2022-11-28T12:29:33.418Z,102558.88
2022-11-28T12:32:22.570Z,102564.13
2022-11-28T12:35:22.726Z,102565.00
2022-11-28T12:38:16.649Z,102568.53
2022-11-28T12:41:02.045Z,102565.06
2022-11-28T12:44:01.214Z,102556.31
2022-11-28T12:46:47.845Z,102566.81
2022-11-28T12:49:49.763Z,102562.44
2022-11-28T12:52:37.879Z,102565.06
2022-11-28T12:55:33.523Z,102570.31
2022-11-28T12:58:07.284Z,102568.53
2022-11-28T13:03:36.941Z,102560.59
2022-11-28T13:06:15.537Z,102564.13
2022-11-28T13:09:24.105Z,102559.69
2022-11-28T13:11:53.689Z,102557.94
2022-11-28T13:14:54.309Z,102551.75
2022-11-28T13:17:40.179Z,102551.75
2022-11-28T13:20:39.032Z,102562.25
2022-11-28T13:23:29.305Z,102561.31
2022-11-28T13:26:18.573Z,102564.81
2022-11-28T13:29:09.793Z,102562.16
2022-11-28T13:32:00.416Z,102560.38
2022-11-28T13:34:30.111Z,102550.72
2022-11-28T13:39:59.737Z,102562.03
2022-11-28T13:43:08.238Z,102558.53
2022-11-28T13:45:39.316Z,102562.84
2022-11-28T13:48:57.581Z,102564.53
2022-11-28T13:51:30.245Z,102570.72
2022-11-28T13:54:19.287Z,102561.91
2022-11-28T13:56:47.927Z,102562.78
2022-11-28T13:59:22.706Z,102559.25
2022-11-28T14:01:59.201Z,102564.53
2022-11-28T14:04:28.443Z,102561.09
2022-11-28T14:07:07.243Z,102565.47
2022-11-28T14:10:03.922Z,102576.00
2022-11-28T14:12:37.538Z,102569.88
2022-11-28T14:15:31.794Z,102569.84
2022-11-28T14:21:43.377Z,102572.44
2022-11-28T14:24:28.312Z,102573.28
2022-11-28T14:27:04.194Z,102576.78
2022-11-28T14:29:38.352Z,102582.03
2022-11-28T14:32:28.928Z,102592.47
2022-11-28T14:34:52.918Z,102591.59
2022-11-28T14:37:19.451Z,102591.66
2022-11-28T14:39:47.513Z,102584.59
2022-11-28T14:42:30.564Z,102588.13
2022-11-28T14:45:20.060Z,102584.59
2022-11-28T14:48:07.266Z,102585.50
2022-11-28T14:50:39.585Z,102587.28
2022-11-28T14:53:34.487Z,102582.84
2022-11-28T14:56:13.980Z,102583.69
2022-11-28T14:58:47.488Z,102584.53
2022-11-28T15:01:25.276Z,102582.81
2022-11-28T15:04:11.750Z,102582.78
2022-11-28T15:06:39.594Z,102582.75
2022-11-28T15:09:31.574Z,102587.06
2022-11-28T15:12:17.480Z,102594.09
2022-11-28T15:14:50.882Z,102579.19
2022-11-28T15:17:21.462Z,102589.69
2022-11-28T15:19:49.946Z,102592.31
2022-11-28T15:22:32.950Z,102595.81
2022-11-28T15:24:59.921Z,102595.81
2022-11-28T15:27:27.948Z,102596.66
2022-11-28T15:29:55.666Z,102595.75
2022-11-28T15:32:23.226Z,102604.44
2022-11-28T15:34:59.071Z,102591.22
2022-11-28T15:37:30.448Z,102598.22
2022-11-28T15:39:57.574Z,102603.38
2022-11-28T15:42:28.345Z,102594.63
2022-11-28T15:44:59.126Z,102595.50
2022-11-28T15:47:27.470Z,102601.63
2022-11-28T15:50:11.662Z,102599.00
2022-11-28T15:52:38.253Z,102599.00
2022-11-28T15:55:16.305Z,102592.00
2022-11-28T15:57:42.924Z,102594.56
2022-11-28T16:00:14.247Z,102598.94
2022-11-28T16:02:42.962Z,102598.94
2022-11-28T16:05:13.382Z,102589.25
2022-11-28T16:07:44.658Z,102596.31
2022-11-28T16:10:26.885Z,102591.06
2022-11-28T16:13:03.192Z,102590.19
2022-11-28T16:15:30.603Z,102590.16
2022-11-28T16:17:57.422Z,102585.75
2022-11-28T16:20:27.739Z,102583.13
2022-11-28T16:22:59.859Z,102589.25
2022-11-28T16:25:27.535Z,102583.13
2022-11-28T16:27:56.506Z,102586.63
2022-11-28T16:30:23.181Z,102584.91
2022-11-28T16:32:55.455Z,102587.53
2022-11-28T16:35:39.006Z,102586.63
2022-11-28T16:38:18.245Z,102576.19
2022-11-28T16:40:45.133Z,102579.66
2022-11-28T16:43:27.884Z,102591.00
2022-11-28T16:46:00.168Z,102588.38
2022-11-28T16:48:30.605Z,102601.56
2022-11-28T16:51:12.766Z,102591.88
2022-11-28T16:53:51.053Z,102586.63
2022-11-28T16:56:29.675Z,102589.25
2022-11-28T16:59:16.725Z,102591.88
2022-11-28T17:01:45.992Z,102584.00
2022-11-28T17:04:24.136Z,102579.59
2022-11-28T17:06:53.250Z,102583.13
2022-11-28T17:09:20.510Z,102587.53
2022-11-28T17:11:55.676Z,102588.44
2022-11-28T17:14:22.590Z,102594.59
2022-11-28T17:16:49.411Z,102589.38
2022-11-28T17:19:16.133Z,102586.75
2022-11-28T17:21:50.785Z,102582.34
2022-11-28T17:24:23.834Z,102584.97
2022-11-28T17:26:52.032Z,102595.50
2022-11-28T17:29:19.298Z,102598.16
2022-11-28T17:31:50.255Z,102594.66
2022-11-28T17:34:27.974Z,102599.00
2022-11-28T17:36:54.589Z,102589.38
2022-11-28T17:39:21.299Z,102594.59
2022-11-28T17:41:48.704Z,102600.72
2022-11-28T17:44:22.511Z,102591.97
2022-11-28T17:46:50.432Z,102595.47
2022-11-28T17:49:17.397Z,102597.25
2022-11-28T17:51:44.401Z,102593.78
2022-11-28T17:54:16.314Z,102597.25
2022-11-28T17:56:43.989Z,102599.00
2022-11-28T17:59:19.020Z,102595.47
2022-11-28T18:01:46.615Z,102600.78
2022-11-28T18:04:13.262Z,102600.75
2022-11-28T18:06:44.222Z,102594.66
2022-11-28T18:09:14.648Z,102594.63
2022-11-28T18:11:42.100Z,102599.88
2022-11-28T18:14:09.170Z,102598.09
2022-11-28T18:16:40.347Z,102600.72
2022-11-28T18:19:10.110Z,102595.44
2022-11-28T18:21:36.757Z,102602.44
2022-11-28T18:24:06.993Z,102605.88
2022-11-28T18:26:33.606Z,102598.88
2022-11-28T18:29:00.264Z,102603.22
2022-11-28T18:31:28.562Z,102603.22
2022-11-28T18:34:02.079Z,102596.09
2022-11-28T18:36:31.469Z,102596.09
2022-11-28T18:39:00.430Z,102592.53
2022-11-28T18:41:27.460Z,102591.66
2022-11-28T18:43:58.832Z,102592.50
2022-11-28T18:46:26.299Z,102594.28
2022-11-28T18:48:53.444Z,102592.50
2022-11-28T18:51:21.475Z,102595.13
2022-11-28T18:53:49.494Z,102593.31
2022-11-28T18:56:19.449Z,102593.31
2022-11-28T18:58:48.053Z,102594.13
2022-11-28T19:01:20.960Z,102594.19
2022-11-28T19:03:53.648Z,102590.69
2022-11-28T19:06:21.482Z,102589.88
2022-11-28T19:08:49.394Z,102590.75
2022-11-28T19:11:17.296Z,102594.31
2022-11-28T19:13:46.272Z,102593.47
2022-11-28T19:16:21.156Z,102595.22
2022-11-28T19:18:48.212Z,102589.06
2022-11-28T19:21:18.839Z,102595.22
2022-11-28T19:23:47.199Z,102592.53
2022-11-28T19:26:15.538Z,102596.91
2022-11-28T19:28:43.044Z,102600.41
2022-11-28T19:31:12.948Z,102596.88
2022-11-28T19:33:42.899Z,102602.06
2022-11-28T19:36:13.830Z,102600.38
2022-11-28T19:38:41.357Z,102597.72
2022-11-28T19:41:08.903Z,102610.00
2022-11-28T19:43:35.950Z,102606.50
2022-11-28T19:46:03.060Z,102610.88
2022-11-28T19:48:31.347Z,102610.88
2022-11-28T19:50:58.335Z,102608.31
2022-11-28T19:53:25.299Z,102612.72
2022-11-28T19:55:52.319Z,102608.41
2022-11-28T19:58:18.914Z,102610.16
2022-11-28T20:00:45.817Z,102607.53
2022-11-28T20:03:12.524Z,102609.28
2022-11-28T20:05:41.222Z,102612.78
2022-11-28T20:08:08.327Z,102603.09
2022-11-28T20:10:36.335Z,102611.03
2022-11-28T20:13:03.006Z,102613.66
2022-11-28T20:15:29.873Z,102619.72
2022-11-28T20:17:56.532Z,102616.25
2022-11-28T20:20:23.111Z,102612.72
2022-11-28T20:22:49.689Z,102612.69
2022-11-28T20:25:20.675Z,102617.09
2022-11-28T20:27:47.649Z,102616.22
2022-11-28T20:30:14.760Z,102611.78
2022-11-28T20:32:41.357Z,102614.41
2022-11-28T20:35:09.537Z,102609.16
2022-11-28T20:37:37.976Z,102614.41
2022-11-28T20:40:05.537Z,102611.75
2022-11-28T20:42:39.458Z,102618.75
2022-11-28T20:45:07.163Z,102622.22
2022-11-28T20:47:34.833Z,102614.34
2022-11-28T20:50:01.552Z,102621.28
2022-11-28T20:52:28.203Z,102628.22
2022-11-28T20:54:54.789Z,102628.22
2022-11-28T20:57:22.364Z,102623.91
2022-11-28T20:59:49.195Z,102625.66
2022-11-28T21:02:15.953Z,102628.31
2022-11-28T21:04:42.571Z,102627.47
2022-11-28T21:07:09.173Z,102627.47
2022-11-28T21:09:35.774Z,102623.91
2022-11-28T21:12:02.403Z,102621.28
2022-11-28T21:14:29.319Z,102630.09
2022-11-28T21:16:57.449Z,102624.00
2022-11-28T21:19:24.229Z,102626.63
2022-11-28T21:21:50.865Z,102621.38
2022-11-28T21:24:17.499Z,102617.88
2022-11-28T21:26:49.693Z,102625.81
2022-11-28T21:29:20.405Z,102626.63
2022-11-28T21:31:47.214Z,102630.94
2022-11-28T21:34:15.579Z,102629.19
2022-11-28T21:36:43.152Z,102630.97
2022-11-28T21:39:16.784Z,102626.56
2022-11-28T21:41:43.466Z,102622.16
2022-11-28T21:44:10.122Z,102630.09
2022-11-28T21:46:36.830Z,102631.84
2022-11-28T21:49:03.564Z,102625.81
2022-11-28T21:51:30.162Z,102619.72
2022-11-28T21:54:00.051Z,102619.72
2022-11-28T21:56:26.642Z,102621.47
2022-11-28T21:58:54.005Z,102622.41
2022-11-28T22:01:21.430Z,102619.78
2022-11-28T22:03:48.782Z,102623.28
2022-11-28T22:06:27.470Z,102621.59
2022-11-28T22:08:54.247Z,102623.34
2022-11-28T22:11:22.089Z,102615.47
2022-11-28T22:13:49.390Z,102617.28
2022-11-28T22:16:18.957Z,102621.69
2022-11-28T22:18:46.813Z,102614.66
2022-11-28T22:21:49.775Z,102612.03
2022-11-28T22:24:02.328Z,102615.50
2022-11-28T22:26:28.943Z,102618.19
2022-11-28T22:28:55.581Z,102621.63
2022-11-28T22:31:22.694Z,102621.59
2022-11-28T22:33:50.380Z,102618.19
2022-11-28T22:36:19.836Z,102624.31
2022-11-28T22:38:47.688Z,102624.31
2022-11-28T22:41:26.365Z,102624.31
2022-11-28T22:43:56.823Z,102624.31
2022-11-28T22:46:23.800Z,102622.53
2022-11-28T22:48:51.868Z,102624.31
2022-11-28T22:51:22.329Z,102616.38
2022-11-28T22:53:53.249Z,102631.28
2022-11-28T22:56:20.136Z,102633.84
2022-11-28T22:58:46.850Z,102633.84
2022-11-28T23:01:19.021Z,102634.72
2022-11-28T23:03:46.851Z,102639.94
2022-11-28T23:06:34.490Z,102632.03
2022-11-28T23:09:05.048Z,102639.03
2022-11-28T23:11:35.478Z,102639.03
2022-11-28T23:14:02.967Z,102640.69
2022-11-28T23:16:37.417Z,102644.19
2022-11-28T23:19:06.756Z,102638.06
2022-11-28T23:21:38.136Z,102638.94
2022-11-28T23:24:05.892Z,102637.19
2022-11-28T23:26:34.180Z,102638.88
2022-11-28T23:29:02.041Z,102645.00
2022-11-28T23:31:31.240Z,102645.88
2022-11-28T23:33:59.244Z,102643.22
2022-11-28T23:36:35.738Z,102639.72
2022-11-28T23:39:10.451Z,102636.25
2022-11-28T23:41:37.027Z,102637.13
2022-11-28T23:44:04.188Z,102636.25
2022-11-28T23:46:30.785Z,102641.50
2022-11-28T23:48:57.474Z,102644.13
2022-11-28T23:51:26.181Z,102639.81
2022-11-28T23:53:53.228Z,102642.44
2022-11-28T23:56:23.529Z,102639.81
2022-11-28T23:58:51.434Z,102643.31
